Swift Current Airport, Saskatchewan

Past 24 Hour Conditions

This table is a summary of hourly weather conditions for the past 24 hours. This summary includes the following parameters: temperature, humidity, dew point, wind speed and direction, air pressure, visibility and/or wind chill and humidex.
Date / Time
(CST)
Conditions Temp (°F) Humidity (%) Dew Point (°F) Wind (mph) Pressure (inches) Visibility (miles)
25 July 2014
21:00 Cloudy 55 90 52 W 29 gust 37 29.7 10
20:00 Cloudy 55 92 53 W 26 gust 38 29.7 10
19:00 Cloudy 54 95 53 W 25 gust 36 29.7 10
18:00 Light Rain 54 95 52 W 30 gust 41 29.7 7
17:00 Light Rain 55 90 52 WSW 24 gust 38 29.7 10
16:00 Light Rain 54 89 51 WSW 30 gust 43 29.7 10
15:00 Light Rain 57 77 50 W 30 gust 44 29.7 10
14:00 Mostly Cloudy 64 57 49 WNW 30 gust 37 29.6 10
13:00 Mainly Sunny 69   48 49 W 21 gust 31 29.6 10
12:00 Mainly Sunny 69   36 41 W 32 gust 43 29.6 10
11:00 Sunny 67 46 45 WSW 26 gust 37 29.6 10
10:00 Sunny 63 56 47 WSW 20 gust 31 29.7 10
9:00 Sunny 60 62 48 SW 17 gust 25 29.7 10
8:00 Sunny 56 72 47 SW 16 gust 22 29.7 10
7:00 Mainly Sunny 50 79 44 SW 17 gust 23 29.7 10
6:00 Sunny 49 80 43 SW 17 29.8 10
5:00 Clear 48   81 42 SW 16 gust 22 29.8 10
4:00 Clear 51 73 42 SW 20 gust 25 29.8 10
3:00 Clear 51 73 42 SW 17 29.7 10
2:00 Clear 52 69 42 SW 16 gust 23 29.7 10
1:00 Clear 51 72 43 SSW 15 gust 22 29.7 10
00:00 Mainly Clear 53 70 43 SSW 11 gust 17 29.7 10
24 July 2014
23:00 Clear 54 67 44 SW 14 gust 21 29.7 10
22:00 Clear 55 68 45 SW 13 gust 37 29.7 10
21:00 Sunny 55 87 51 SW 10 29.7 10
N/A
Not available
 ↑ 
Highest temperature
 ↓ 
Lowest temperature

If you require additional historical weather information, please visit Climate Data Online.